Time;durP1;ratioP1;P1;durP2;ratioP2;P2;SDS_P1;SDS_P2;PMS_P1;PMS_P2;Temp;Humidity;BMP_temperature;BMP_pressure;BME280_temperature;BME280_humidity;BME280_pressure;Samples;Min_cycle;Max_cycle;Signal;HPM_P1;HPM_P2
2022/08/17 00:00:00;;;;;;;;;;;16.40;99.90;;;;;;5068849;28;20379;-61
2022/08/17 00:02:54;;;;;;;;;;;16.40;99.90;;;;;;5069197;28;19925;-56
2022/08/17 00:05:22;;;;;;;;;;;16.40;99.90;;;;;;5088595;28;19932;-59
2022/08/17 00:07:49;;;;;;;;;;;16.40;99.90;;;;;;5085750;28;19931;-60
2022/08/17 00:10:17;;;;;;;;;;;16.40;99.90;;;;;;5085848;28;20375;-56
2022/08/17 00:12:44;;;;;;;;;;;16.40;99.90;;;;;;5082873;28;20283;-59
2022/08/17 00:15:12;;;;;;;;;;;16.30;99.90;;;;;;5087424;28;19931;-59
2022/08/17 00:17:43;;;;;;;;;;;16.40;99.90;;;;;;5088942;28;19931;-58
2022/08/17 00:20:12;;;;;;;;;;;16.30;99.90;;;;;;5087597;28;19924;-55
2022/08/17 00:22:41;;;;;;;;;;;16.30;99.90;;;;;;5088504;28;19931;-54
2022/08/17 00:25:11;;;;;;;;;;;16.30;99.90;;;;;;5088661;28;20371;-55
2022/08/17 00:27:39;;;;;;;;;;;16.30;99.90;;;;;;5082986;28;20286;-54
2022/08/17 00:30:07;;;;;;;;;;;16.40;99.90;;;;;;5088759;28;20291;-57
2022/08/17 00:32:36;;;;;;;;;;;16.30;99.90;;;;;;5087183;28;19928;-56
2022/08/17 00:35:24;;;;;;;;;;;16.30;99.90;;;;;;5088571;28;19935;-56
2022/08/17 00:37:52;;;;;;;;;;;16.30;99.90;;;;;;5070590;28;19924;-54
2022/08/17 00:40:20;;;;;;;;;;;16.30;99.90;;;;;;5088446;28;19924;-56
2022/08/17 00:42:52;;;;;;;;;;;16.30;99.90;;;;;;5085014;28;19924;-55
2022/08/17 00:45:19;;;;;;;;;;;16.30;99.90;;;;;;5092804;28;19924;-53
2022/08/17 00:47:48;;;;;;;;;;;16.20;99.90;;;;;;5091194;28;19928;-56
2022/08/17 00:50:17;;;;;;;;;;;16.20;99.90;;;;;;5092685;28;19925;-54
2022/08/17 00:52:50;;;;;;;;;;;16.20;99.90;;;;;;5092362;28;19931;-53
2022/08/17 00:55:18;;;;;;;;;;;16.20;99.90;;;;;;5091320;28;19931;-54
2022/08/17 00:57:49;;;;;;;;;;;16.20;99.90;;;;;;5087513;28;19924;-53
2022/08/17 01:00:41;;;;;;;;;;;16.10;99.90;;;;;;5092550;28;19931;-59
2022/08/17 01:03:12;;;;;;;;;;;16.20;99.90;;;;;;5087995;28;19924;-58
2022/08/17 01:05:40;;;;;;;;;;;16.10;99.90;;;;;;5089176;28;19924;-57
2022/08/17 01:08:14;;;;;;;;;;;16.10;99.90;;;;;;5091231;28;20297;-59
2022/08/17 01:10:46;;;;;;;;;;;16.00;99.90;;;;;;5092207;28;19947;-60
2022/08/17 01:13:46;;;;;;;;;;;16.00;99.90;;;;;;5090330;28;20382;-59
2022/08/17 01:16:19;;;;;;;;;;;16.00;99.90;;;;;;5091983;28;19924;-56
2022/08/17 01:18:48;;;;;;;;;;;16.00;99.90;;;;;;5091945;28;20393;-54
2022/08/17 01:21:35;;;;;;;;;;;16.00;99.90;;;;;;5090621;28;20395;-54
2022/08/17 01:24:03;;;;;;;;;;;16.00;99.90;;;;;;5091614;28;19951;-56
2022/08/17 01:26:31;;;;;;;;;;;16.00;99.90;;;;;;5090968;28;19924;-54
2022/08/17 01:29:00;;;;;;;;;;;16.00;99.90;;;;;;5090231;28;20367;-53
2022/08/17 01:31:29;;;;;;;;;;;16.00;99.90;;;;;;5082218;28;19925;-54
2022/08/17 01:33:58;;;;;;;;;;;15.90;99.90;;;;;;5074607;28;19924;-54
2022/08/17 01:36:28;;;;;;;;;;;15.90;99.90;;;;;;5074693;28;19932;-57
2022/08/17 01:38:55;;;;;;;;;;;15.90;99.90;;;;;;5093661;28;19935;-57
2022/08/17 01:41:23;;;;;;;;;;;15.90;99.90;;;;;;5094834;28;19924;-58
2022/08/17 01:43:52;;;;;;;;;;;15.90;99.90;;;;;;5083907;28;20403;-57
2022/08/17 01:46:29;;;;;;;;;;;15.90;99.90;;;;;;5073935;28;19924;-58
2022/08/17 01:48:57;;;;;;;;;;;15.90;99.90;;;;;;5074606;28;19944;-56
2022/08/17 01:51:26;;;;;;;;;;;15.80;99.90;;;;;;5074547;28;19932;-59
2022/08/17 01:53:56;;;;;;;;;;;15.90;99.90;;;;;;5074581;28;20367;-57
2022/08/17 01:56:25;;;;;;;;;;;15.80;99.90;;;;;;5073817;28;19925;-57
2022/08/17 01:58:52;;;;;;;;;;;15.80;99.90;;;;;;5073924;28;20469;-58
2022/08/17 02:01:21;;;;;;;;;;;15.70;99.90;;;;;;5074344;28;19925;-58
2022/08/17 02:03:49;;;;;;;;;;;15.70;99.90;;;;;;5073092;28;19933;-58
2022/08/17 02:06:31;;;;;;;;;;;15.70;99.90;;;;;;5073042;28;19932;-58
2022/08/17 02:09:11;;;;;;;;;;;15.70;99.90;;;;;;5074284;28;19931;-57
2022/08/17 02:11:43;;;;;;;;;;;15.70;99.90;;;;;;5074175;28;19944;-58
2022/08/17 02:14:12;;;;;;;;;;;15.70;99.90;;;;;;5073870;28;19926;-57
2022/08/17 02:16:40;;;;;;;;;;;15.70;99.90;;;;;;5073961;28;19932;-57
2022/08/17 02:19:09;;;;;;;;;;;15.70;99.90;;;;;;5074110;28;19925;-58
2022/08/17 02:21:37;;;;;;;;;;;15.70;99.90;;;;;;5074086;28;20375;-58
2022/08/17 02:24:10;;;;;;;;;;;15.70;99.90;;;;;;5074063;28;19925;-59
2022/08/17 02:26:38;;;;;;;;;;;15.80;99.90;;;;;;5074108;28;20287;-58
2022/08/17 02:29:06;;;;;;;;;;;15.70;99.90;;;;;;5074101;28;19931;-58
2022/08/17 02:31:34;;;;;;;;;;;15.70;99.90;;;;;;5073841;28;20260;-54
2022/08/17 02:34:02;;;;;;;;;;;15.70;99.90;;;;;;5073766;28;19924;-54
2022/08/17 02:36:32;;;;;;;;;;;15.70;99.90;;;;;;5073700;28;19924;-55
2022/08/17 02:39:01;;;;;;;;;;;15.70;99.90;;;;;;5072338;28;19932;-55
2022/08/17 02:41:29;;;;;;;;;;;15.60;99.90;;;;;;5073619;28;19925;-55
2022/08/17 02:43:56;;;;;;;;;;;15.70;99.90;;;;;;5073749;28;20319;-57
2022/08/17 02:46:24;;;;;;;;;;;15.60;99.90;;;;;;5073592;28;19931;-54
2022/08/17 02:48:51;;;;;;;;;;;15.60;99.90;;;;;;5073519;28;20383;-55
2022/08/17 02:51:19;;;;;;;;;;;15.60;99.90;;;;;;5073377;28;19925;-54
2022/08/17 02:53:46;;;;;;;;;;;15.60;99.90;;;;;;5073458;28;20002;-56
2022/08/17 02:56:14;;;;;;;;;;;15.60;99.90;;;;;;5073253;28;19924;-55
2022/08/17 02:58:41;;;;;;;;;;;15.60;99.90;;;;;;5073255;28;19924;-54
2022/08/17 03:01:09;;;;;;;;;;;15.60;99.90;;;;;;5073273;28;20281;-55
2022/08/17 03:03:37;;;;;;;;;;;15.50;99.90;;;;;;5073096;28;19925;-54
2022/08/17 03:06:06;;;;;;;;;;;15.50;99.90;;;;;;5072871;28;19925;-56
2022/08/17 03:08:34;;;;;;;;;;;15.50;99.90;;;;;;5072426;28;19924;-55
2022/08/17 03:11:02;;;;;;;;;;;15.50;99.90;;;;;;5073086;28;19932;-55
2022/08/17 03:13:30;;;;;;;;;;;15.50;99.90;;;;;;5072986;28;19924;-54
2022/08/17 03:15:57;;;;;;;;;;;15.50;99.90;;;;;;5072839;28;19924;-54
2022/08/17 03:18:26;;;;;;;;;;;15.50;99.90;;;;;;5071747;28;19924;-55
2022/08/17 03:20:55;;;;;;;;;;;15.50;99.90;;;;;;5072773;28;19931;-55
2022/08/17 03:23:23;;;;;;;;;;;15.40;99.90;;;;;;5072721;28;19924;-55
2022/08/17 03:25:52;;;;;;;;;;;15.40;99.90;;;;;;5072906;28;20295;-55
2022/08/17 03:28:20;;;;;;;;;;;15.50;99.90;;;;;;5072723;28;19939;-54
2022/08/17 03:30:49;;;;;;;;;;;15.40;99.90;;;;;;5072949;28;19932;-55
2022/08/17 03:33:17;;;;;;;;;;;15.40;99.90;;;;;;5072599;28;20042;-54
2022/08/17 03:35:45;;;;;;;;;;;15.40;99.90;;;;;;5072557;28;19924;-55
2022/08/17 03:38:15;;;;;;;;;;;15.40;99.90;;;;;;5054791;28;19924;-55
2022/08/17 03:40:45;;;;;;;;;;;15.40;99.90;;;;;;5072433;28;19924;-58
2022/08/17 03:43:30;;;;;;;;;;;15.40;99.90;;;;;;5072576;28;20398;-58
2022/08/17 03:57:27;;;;;;;;;;;15.30;99.90;;;;;;5072045;28;19925;-55
2022/08/17 03:59:55;;;;;;;;;;;15.30;99.90;;;;;;5072266;28;19924;-54
2022/08/17 04:02:32;;;;;;;;;;;15.30;99.90;;;;;;5072326;28;19928;-56
2022/08/17 04:05:00;;;;;;;;;;;15.30;99.90;;;;;;5072242;28;20301;-56
2022/08/17 04:07:29;;;;;;;;;;;15.30;99.90;;;;;;5072336;28;20394;-58
2022/08/17 04:09:58;;;;;;;;;;;15.30;99.90;;;;;;5072195;28;19929;-55
2022/08/17 04:12:29;;;;;;;;;;;15.30;99.90;;;;;;5072174;28;19924;-55
2022/08/17 04:14:57;;;;;;;;;;;15.40;99.90;;;;;;5072053;28;19931;-58
2022/08/17 04:17:27;;;;;;;;;;;15.40;99.90;;;;;;5071954;28;19924;-58
2022/08/17 04:19:55;;;;;;;;;;;15.40;99.90;;;;;;5072083;28;20363;-58
2022/08/17 04:22:22;;;;;;;;;;;15.40;99.90;;;;;;5072021;28;19924;-57
2022/08/17 04:25:00;;;;;;;;;;;15.40;99.90;;;;;;5072030;28;19924;-55
2022/08/17 04:27:28;;;;;;;;;;;15.40;99.90;;;;;;5071946;28;19947;-57
2022/08/17 04:29:55;;;;;;;;;;;15.50;99.90;;;;;;5071785;28;19924;-55
2022/08/17 04:32:22;;;;;;;;;;;15.40;99.90;;;;;;5072224;28;19974;-55
2022/08/17 04:35:10;;;;;;;;;;;15.40;99.90;;;;;;5071963;28;19928;-55
2022/08/17 04:37:37;;;;;;;;;;;15.50;99.90;;;;;;5071890;28;19935;-55
2022/08/17 04:43:00;;;;;;;;;;;15.40;99.90;;;;;;5071846;28;19924;-58
2022/08/17 04:45:28;;;;;;;;;;;15.50;99.90;;;;;;5070602;28;19924;-55
2022/08/17 04:47:59;;;;;;;;;;;15.50;99.90;;;;;;5070632;28;19924;-55
2022/08/17 04:50:27;;;;;;;;;;;15.40;99.90;;;;;;5069096;28;20359;-59
2022/08/17 04:52:55;;;;;;;;;;;15.40;99.90;;;;;;5068395;28;19932;-58
2022/08/17 04:55:23;;;;;;;;;;;15.50;99.90;;;;;;5067186;28;19928;-58
2022/08/17 04:57:51;;;;;;;;;;;15.40;99.90;;;;;;5074258;28;19935;-58
2022/08/17 05:00:18;;;;;;;;;;;15.50;99.90;;;;;;5088613;28;19924;-59
2022/08/17 05:02:49;;;;;;;;;;;15.40;99.90;;;;;;5077222;28;19926;-57
2022/08/17 05:05:21;;;;;;;;;;;15.40;99.90;;;;;;5065224;28;20323;-59
2022/08/17 05:07:53;;;;;;;;;;;15.40;99.90;;;;;;5084926;28;19924;-60
2022/08/17 05:10:22;;;;;;;;;;;15.40;99.90;;;;;;5088089;28;19925;-58
2022/08/17 05:12:56;;;;;;;;;;;15.40;99.90;;;;;;5066669;28;19924;-60
2022/08/17 05:15:24;;;;;;;;;;;15.40;99.90;;;;;;5084734;28;20307;-59
2022/08/17 05:17:52;;;;;;;;;;;15.40;99.90;;;;;;5079887;28;19924;-56
2022/08/17 05:20:20;;;;;;;;;;;15.40;99.90;;;;;;5063325;28;20430;-58
2022/08/17 05:22:49;;;;;;;;;;;15.40;99.90;;;;;;5067574;28;20299;-58
2022/08/17 05:25:19;;;;;;;;;;;15.40;99.90;;;;;;5084893;28;19928;-59
2022/08/17 05:27:52;;;;;;;;;;;15.40;99.90;;;;;;5088169;28;20275;-57
2022/08/17 05:30:19;;;;;;;;;;;15.40;99.90;;;;;;5089009;28;20272;-58
2022/08/17 05:32:54;;;;;;;;;;;15.40;99.90;;;;;;5090905;28;20419;-59
2022/08/17 05:35:22;;;;;;;;;;;15.40;99.90;;;;;;5091992;28;19924;-54
2022/08/17 05:37:50;;;;;;;;;;;15.40;99.90;;;;;;5091359;28;19931;-54
2022/08/17 05:40:19;;;;;;;;;;;15.40;99.90;;;;;;5091849;28;19950;-53
2022/08/17 05:42:47;;;;;;;;;;;15.40;99.90;;;;;;5091341;28;19939;-54
2022/08/17 05:45:16;;;;;;;;;;;15.40;99.90;;;;;;5091258;28;19931;-54
2022/08/17 05:48:03;;;;;;;;;;;15.40;99.90;;;;;;5084116;28;19928;-54
2022/08/17 05:50:35;;;;;;;;;;;15.40;99.90;;;;;;5068445;28;19932;-54
2022/08/17 05:53:20;;;;;;;;;;;15.30;99.90;;;;;;5072727;28;19924;-54
2022/08/17 05:55:55;;;;;;;;;;;15.40;99.90;;;;;;5088102;28;19932;-58
2022/08/17 05:58:29;;;;;;;;;;;15.40;99.90;;;;;;5091056;28;19924;-58
2022/08/17 06:00:56;;;;;;;;;;;15.40;99.90;;;;;;5086556;28;19928;-58
2022/08/17 06:03:27;;;;;;;;;;;15.40;99.90;;;;;;5069974;28;20563;-58
2022/08/17 06:06:04;;;;;;;;;;;15.40;99.90;;;;;;5068842;28;19932;-58
2022/08/17 06:08:41;;;;;;;;;;;15.50;99.90;;;;;;5089864;28;19931;-58
2022/08/17 06:11:27;;;;;;;;;;;15.50;99.90;;;;;;5091012;28;20311;-56
2022/08/17 06:14:12;;;;;;;;;;;15.50;99.90;;;;;;5089319;28;20441;-54
2022/08/17 06:16:42;;;;;;;;;;;15.50;99.90;;;;;;5086414;28;20291;-55
2022/08/17 06:19:18;;;;;;;;;;;15.50;99.90;;;;;;5075526;28;19932;-54
2022/08/17 06:21:47;;;;;;;;;;;15.50;99.90;;;;;;5070924;28;19936;-55
2022/08/17 06:24:24;;;;;;;;;;;15.60;99.90;;;;;;5085277;28;20383;-54
2022/08/17 06:26:53;;;;;;;;;;;15.60;99.90;;;;;;5090841;28;19924;-57
2022/08/17 06:29:35;;;;;;;;;;;15.60;99.90;;;;;;5090607;28;19931;-57
2022/08/17 06:32:06;;;;;;;;;;;15.70;99.90;;;;;;5089706;28;20371;-58
2022/08/17 06:34:34;;;;;;;;;;;15.70;99.90;;;;;;5058159;28;19935;-57
2022/08/17 06:37:04;;;;;;;;;;;15.70;99.90;;;;;;5070547;28;20395;-58
2022/08/17 06:39:51;;;;;;;;;;;15.70;99.90;;;;;;5090704;28;20372;-59
2022/08/17 06:42:19;;;;;;;;;;;15.70;99.90;;;;;;5090163;28;20375;-59
2022/08/17 06:45:13;;;;;;;;;;;15.80;99.90;;;;;;5090714;28;19935;-59
2022/08/17 06:47:55;;;;;;;;;;;15.70;99.90;;;;;;5089154;28;19931;-58
2022/08/17 06:50:30;;;;;;;;;;;15.70;99.90;;;;;;5090382;27;20363;-55
2022/08/17 06:53:02;;;;;;;;;;;15.70;99.90;;;;;;5089032;28;19964;-58
2022/08/17 06:55:44;;;;;;;;;;;15.60;99.90;;;;;;5090346;28;19932;-54
2022/08/17 06:58:12;;;;;;;;;;;15.60;99.90;;;;;;5089987;28;19947;-57
2022/08/17 07:00:45;;;;;;;;;;;15.70;99.90;;;;;;5089296;28;19931;-55
2022/08/17 07:03:26;;;;;;;;;;;15.70;99.90;;;;;;5086123;28;19932;-59
2022/08/17 07:05:58;;;;;;;;;;;15.70;99.90;;;;;;5066714;28;19924;-58
2022/08/17 07:08:32;;;;;;;;;;;15.70;99.90;;;;;;5081751;28;19924;-55
2022/08/17 07:11:04;;;;;;;;;;;15.70;99.90;;;;;;5090170;28;19925;-55
2022/08/17 07:13:37;;;;;;;;;;;15.80;99.90;;;;;;5089638;28;20313;-55
2022/08/17 07:16:24;;;;;;;;;;;15.70;99.90;;;;;;5088254;28;20363;-60
2022/08/17 07:18:53;;;;;;;;;;;15.70;99.90;;;;;;5084309;28;20280;-54
2022/08/17 07:21:39;;;;;;;;;;;15.70;99.90;;;;;;5069529;28;19925;-54
2022/08/17 07:24:10;;;;;;;;;;;15.80;99.90;;;;;;5082676;28;19925;-60
2022/08/17 07:27:02;;;;;;;;;;;15.80;99.90;;;;;;5088326;28;19924;-55
2022/08/17 07:29:31;;;;;;;;;;;15.80;99.90;;;;;;5089462;28;19931;-54
2022/08/17 07:31:59;;;;;;;;;;;15.80;99.90;;;;;;5089676;28;20404;-58
2022/08/17 07:34:27;;;;;;;;;;;15.90;99.90;;;;;;5080331;28;19939;-57
2022/08/17 07:37:04;;;;;;;;;;;15.90;99.90;;;;;;5069467;28;19924;-59
2022/08/17 07:39:31;;;;;;;;;;;15.90;99.90;;;;;;5069302;28;19932;-60
2022/08/17 07:42:02;;;;;;;;;;;16.00;99.90;;;;;;5069265;28;19924;-58
2022/08/17 07:44:30;;;;;;;;;;;16.10;99.90;;;;;;5085538;28;19935;-58
2022/08/17 07:49:47;;;;;;;;;;;16.20;99.90;;;;;;5084133;28;19931;-59
2022/08/17 07:52:36;;;;;;;;;;;16.20;99.90;;;;;;5068996;28;19932;-60
2022/08/17 07:55:30;;;;;;;;;;;16.20;99.90;;;;;;5069444;28;19933;-60
2022/08/17 07:57:58;;;;;;;;;;;16.20;99.90;;;;;;5076764;28;19931;-58
2022/08/17 08:00:27;;;;;;;;;;;16.20;99.90;;;;;;5087345;28;19924;-58
2022/08/17 08:03:02;;;;;;;;;;;16.20;99.90;;;;;;5085592;28;19924;-60
2022/08/17 08:05:31;;;;;;;;;;;16.20;99.90;;;;;;5069439;28;19928;-59
2022/08/17 08:08:19;;;;;;;;;;;16.20;99.90;;;;;;5079469;28;19924;-57
2022/08/17 08:10:56;;;;;;;;;;;16.20;99.90;;;;;;5089049;28;19931;-56
2022/08/17 08:13:26;;;;;;;;;;;16.20;99.90;;;;;;5089438;28;19932;-54
2022/08/17 08:15:55;;;;;;;;;;;16.20;99.90;;;;;;5088477;28;20638;-55
2022/08/17 08:18:26;;;;;;;;;;;16.20;99.90;;;;;;5088660;28;19924;-55
2022/08/17 08:21:23;;;;;;;;;;;16.20;99.90;;;;;;5067837;28;20387;-54
2022/08/17 08:23:58;;;;;;;;;;;16.20;99.90;;;;;;5079194;28;20299;-59
2022/08/17 08:26:25;;;;;;;;;;;16.20;99.90;;;;;;5087293;28;19931;-59
2022/08/17 08:28:56;;;;;;;;;;;16.30;99.90;;;;;;5088587;28;19924;-60
2022/08/17 08:31:50;;;;;;;;;;;16.30;99.90;;;;;;5088686;28;20272;-58
2022/08/17 08:34:36;;;;;;;;;;;16.40;99.90;;;;;;5075707;28;19924;-59
2022/08/17 08:37:46;;;;;;;;;;;16.40;99.90;;;;;;5071585;28;19928;-60
2022/08/17 08:40:33;;;;;;;;;;;16.40;99.90;;;;;;5082255;28;19939;-55
2022/08/17 08:43:08;;;;;;;;;;;16.40;99.90;;;;;;5088672;28;19924;-54
2022/08/17 08:45:39;;;;;;;;;;;16.50;99.90;;;;;;5087514;28;19935;-59
2022/08/17 08:48:10;;;;;;;;;;;16.50;99.90;;;;;;5088357;28;19924;-56
2022/08/17 08:51:04;;;;;;;;;;;16.50;99.90;;;;;;5071695;28;20116;-58
2022/08/17 08:53:50;;;;;;;;;;;16.50;99.90;;;;;;5075134;28;19951;-57
2022/08/17 08:56:23;;;;;;;;;;;16.50;99.90;;;;;;5087470;28;19928;-57
2022/08/17 08:59:00;;;;;;;;;;;16.50;99.90;;;;;;5088272;28;19935;-59
2022/08/17 09:01:36;;;;;;;;;;;16.50;99.90;;;;;;5087984;28;20405;-55
2022/08/17 09:04:14;;;;;;;;;;;16.60;99.90;;;;;;5087846;28;20458;-58
2022/08/17 09:06:57;;;;;;;;;;;16.50;99.90;;;;;;5071525;28;19932;-54
2022/08/17 09:09:34;;;;;;;;;;;16.60;99.90;;;;;;5092088;28;19925;-56
2022/08/17 09:12:22;;;;;;;;;;;16.60;99.90;;;;;;5092239;28;20276;-54
2022/08/17 09:14:58;;;;;;;;;;;16.70;99.90;;;;;;5080146;28;19931;-59
2022/08/17 09:17:41;;;;;;;;;;;16.80;99.90;;;;;;5091125;28;19932;-61
2022/08/17 09:20:29;;;;;;;;;;;17.00;99.90;;;;;;5082793;28;19933;-57
2022/08/17 09:23:08;;;;;;;;;;;17.10;99.90;;;;;;5066976;28;19939;-55
2022/08/17 09:25:48;;;;;;;;;;;17.20;99.90;;;;;;5092335;28;19928;-55
2022/08/17 09:28:18;;;;;;;;;;;17.30;99.90;;;;;;5091885;28;19924;-56
2022/08/17 09:30:49;;;;;;;;;;;17.30;99.90;;;;;;5091905;28;19935;-57
2022/08/17 09:33:21;;;;;;;;;;;17.40;99.90;;;;;;5091725;28;19924;-58
2022/08/17 09:36:02;;;;;;;;;;;17.40;99.90;;;;;;5079440;28;19925;-54
2022/08/17 09:38:45;;;;;;;;;;;17.40;99.90;;;;;;5083982;28;19928;-56
2022/08/17 09:41:23;;;;;;;;;;;17.40;99.90;;;;;;5091665;28;19924;-54
2022/08/17 09:44:12;;;;;;;;;;;17.50;99.90;;;;;;5091498;28;19939;-60
2022/08/17 09:46:53;;;;;;;;;;;17.50;99.90;;;;;;5091697;28;19928;-60
2022/08/17 09:49:24;;;;;;;;;;;17.50;99.90;;;;;;5090168;28;19931;-60
2022/08/17 09:51:55;;;;;;;;;;;17.50;99.90;;;;;;5071122;28;19987;-58
2022/08/17 09:54:23;;;;;;;;;;;17.50;99.90;;;;;;5085743;28;19924;-57
2022/08/17 09:57:23;;;;;;;;;;;17.50;99.90;;;;;;5090111;28;19928;-55
2022/08/17 10:00:17;;;;;;;;;;;17.50;99.90;;;;;;5091284;28;19931;-59
2022/08/17 10:02:54;;;;;;;;;;;17.60;99.90;;;;;;5087722;28;19931;-59
2022/08/17 10:05:28;;;;;;;;;;;17.60;99.90;;;;;;5081425;28;19935;-60
2022/08/17 10:07:57;;;;;;;;;;;17.70;99.90;;;;;;5078568;28;19928;-58
2022/08/17 10:10:28;;;;;;;;;;;17.80;99.90;;;;;;5089939;28;19924;-61
2022/08/17 10:13:03;;;;;;;;;;;18.00;99.90;;;;;;5089747;28;20587;-61
2022/08/17 10:15:42;;;;;;;;;;;18.20;99.90;;;;;;5089663;28;20287;-61
2022/08/17 10:18:19;;;;;;;;;;;18.20;99.90;;;;;;5090674;28;19924;-61
2022/08/17 10:26:11;;;;;;;;;;;18.40;99.90;;;;;;5081897;28;19924;-61
2022/08/17 10:26:30;;;;;;;;;;;18.70;99.90;;;;;;5088103;28;19928;-57
2022/08/17 10:29:21;;;;;;;;;;;18.90;99.90;;;;;;5069706;28;19924;-58
2022/08/17 10:31:52;;;;;;;;;;;19.10;99.90;;;;;;5089727;28;20127;-55
2022/08/17 10:34:35;;;;;;;;;;;19.20;99.90;;;;;;5089399;28;19928;-56
2022/08/17 10:37:10;;;;;;;;;;;19.30;99.90;;;;;;5071149;28;19924;-58
2022/08/17 10:39:57;;;;;;;;;;;19.40;99.90;;;;;;5090650;28;20532;-58
2022/08/17 10:42:30;;;;;;;;;;;19.40;99.90;;;;;;5090566;28;19990;-57
2022/08/17 10:45:13;;;;;;;;;;;19.30;99.90;;;;;;5090229;28;19932;-56
2022/08/17 10:47:58;;;;;;;;;;;19.20;99.90;;;;;;5090895;28;20307;-59
2022/08/17 10:50:57;;;;;;;;;;;18.70;99.90;;;;;;5085218;28;20391;-59
2022/08/17 10:53:30;;;;;;;;;;;18.90;99.90;;;;;;5076293;28;20379;-59
2022/08/17 10:56:13;;;;;;;;;;;18.90;99.90;;;;;;5090339;28;20302;-58
2022/08/17 10:58:48;;;;;;;;;;;18.80;99.90;;;;;;5089871;28;19931;-60
2022/08/17 11:01:16;;;;;;;;;;;18.80;99.90;;;;;;5090414;28;19924;-56
2022/08/17 11:03:54;;;;;;;;;;;18.90;99.90;;;;;;5090212;28;19935;-57
2022/08/17 11:06:24;;;;;;;;;;;19.00;99.90;;;;;;5079377;28;19925;-56
2022/08/17 11:08:57;;;;;;;;;;;19.10;99.90;;;;;;5084641;28;19928;-54
2022/08/17 11:11:46;;;;;;;;;;;19.20;99.90;;;;;;5089824;28;19924;-59
2022/08/17 11:14:38;;;;;;;;;;;19.20;99.90;;;;;;5089646;28;19924;-59
2022/08/17 11:17:18;;;;;;;;;;;19.20;99.90;;;;;;5089788;28;19924;-56
2022/08/17 11:20:04;;;;;;;;;;;19.10;99.90;;;;;;5090059;28;20286;-57
2022/08/17 11:22:32;;;;;;;;;;;18.90;99.90;;;;;;5069625;28;19935;-59
2022/08/17 11:25:13;;;;;;;;;;;18.80;99.90;;;;;;5088482;28;20305;-61
2022/08/17 11:27:42;;;;;;;;;;;18.80;99.90;;;;;;5088800;28;19935;-59
2022/08/17 11:30:11;;;;;;;;;;;18.70;99.90;;;;;;5089948;28;19932;-61
2022/08/17 11:32:49;;;;;;;;;;;18.60;99.90;;;;;;5088686;28;19932;-59
2022/08/17 11:35:21;;;;;;;;;;;18.60;99.90;;;;;;5088888;28;19932;-59
2022/08/17 11:38:07;;;;;;;;;;;18.60;99.90;;;;;;5088537;28;19928;-59
2022/08/17 11:40:58;;;;;;;;;;;18.60;99.90;;;;;;5089730;28;19931;-58
2022/08/17 11:43:46;;;;;;;;;;;18.50;99.90;;;;;;5089448;28;19935;-56
2022/08/17 11:46:22;;;;;;;;;;;18.50;99.90;;;;;;5089213;28;19924;-55
2022/08/17 11:51:59;;;;;;;;;;;18.50;99.90;;;;;;5076124;28;19931;-55
2022/08/17 11:54:39;;;;;;;;;;;18.40;99.90;;;;;;5081939;28;19924;-56
2022/08/17 11:57:24;;;;;;;;;;;18.40;99.90;;;;;;5089329;28;19998;-54
2022/08/17 11:59:55;;;;;;;;;;;18.40;99.90;;;;;;5087761;28;19998;-62
2022/08/17 12:02:34;;;;;;;;;;;18.50;99.90;;;;;;5088851;28;19924;-54
2022/08/17 12:05:01;;;;;;;;;;;18.50;99.90;;;;;;5088763;28;19923;-54
2022/08/17 12:07:31;;;;;;;;;;;18.50;99.90;;;;;;5087194;28;19928;-57
2022/08/17 12:09:59;;;;;;;;;;;18.50;99.90;;;;;;5089030;28;19928;-60
2022/08/17 12:12:31;;;;;;;;;;;18.50;99.90;;;;;;5089012;28;19924;-54
2022/08/17 12:15:00;;;;;;;;;;;18.50;99.90;;;;;;5088415;28;19931;-55
2022/08/17 12:17:50;;;;;;;;;;;18.60;99.90;;;;;;5089018;28;19924;-56
2022/08/17 12:20:27;;;;;;;;;;;18.70;99.90;;;;;;5088789;28;19931;-56
2022/08/17 12:23:13;;;;;;;;;;;18.80;99.90;;;;;;5070806;28;19931;-55
2022/08/17 12:25:48;;;;;;;;;;;18.90;99.90;;;;;;5088811;28;19935;-59
2022/08/17 12:28:24;;;;;;;;;;;19.00;99.90;;;;;;5088515;28;19994;-61
2022/08/17 12:30:52;;;;;;;;;;;19.10;99.90;;;;;;5089042;28;19928;-62
2022/08/17 12:33:21;;;;;;;;;;;19.20;99.90;;;;;;5088651;28;20398;-61
2022/08/17 12:36:02;;;;;;;;;;;19.20;99.90;;;;;;5088079;28;19924;-62
2022/08/17 12:38:33;;;;;;;;;;;19.30;99.90;;;;;;5080146;28;19924;-61
2022/08/17 12:41:25;;;;;;;;;;;19.40;99.90;;;;;;5092419;28;20361;-61
2022/08/17 12:44:00;;;;;;;;;;;19.50;99.90;;;;;;5092525;28;19923;-62
2022/08/17 12:46:33;;;;;;;;;;;19.60;99.90;;;;;;5093092;28;19924;-57
2022/08/17 12:49:22;;;;;;;;;;;19.70;99.90;;;;;;5092834;28;19947;-62
2022/08/17 12:51:50;;;;;;;;;;;19.80;99.90;;;;;;5084671;28;20422;-57
2022/08/17 12:54:30;;;;;;;;;;;19.80;99.90;;;;;;5084873;28;19924;-55
2022/08/17 12:57:04;;;;;;;;;;;19.90;99.90;;;;;;5092642;28;19931;-55
2022/08/17 12:59:32;;;;;;;;;;;19.90;99.90;;;;;;5092811;28;19935;-56
2022/08/17 13:01:59;;;;;;;;;;;20.00;99.90;;;;;;5090344;28;20371;-55
2022/08/17 13:04:27;;;;;;;;;;;20.40;99.90;;;;;;5087529;28;19924;-54
2022/08/17 13:06:57;;;;;;;;;;;20.40;99.90;;;;;;5083615;28;19925;-55
2022/08/17 13:09:28;;;;;;;;;;;20.60;98.90;;;;;;5091571;28;19928;-55
2022/08/17 13:12:03;;;;;;;;;;;20.80;99.30;;;;;;5092352;28;19947;-55
2022/08/17 13:14:31;;;;;;;;;;;21.20;98.70;;;;;;5091846;28;19943;-55
2022/08/17 13:17:01;;;;;;;;;;;21.40;98.20;;;;;;5091257;28;20368;-57
2022/08/17 13:19:29;;;;;;;;;;;21.70;98.10;;;;;;5092187;28;19928;-58
2022/08/17 13:22:10;;;;;;;;;;;21.90;96.90;;;;;;5084007;28;19924;-59
2022/08/17 13:24:47;;;;;;;;;;;22.10;97.30;;;;;;5087071;28;19924;-60
2022/08/17 13:27:18;;;;;;;;;;;22.30;96.80;;;;;;5092085;28;19924;-60
2022/08/17 13:29:49;;;;;;;;;;;22.50;96.20;;;;;;5091898;28;20295;-56
2022/08/17 13:32:21;;;;;;;;;;;22.50;95.90;;;;;;5091842;28;19935;-55
2022/08/17 13:34:53;;;;;;;;;;;22.40;95.60;;;;;;5091555;28;19924;-58
2022/08/17 13:38:00;;;;;;;;;;;22.30;95.40;;;;;;5084466;28;19924;-61
2022/08/17 13:40:29;;;;;;;;;;;22.30;95.90;;;;;;5090736;28;19936;-60
2022/08/17 13:42:57;;;;;;;;;;;22.20;95.60;;;;;;5091671;28;19931;-62
2022/08/17 13:45:30;;;;;;;;;;;22.10;96.30;;;;;;5091753;28;19935;-58
2022/08/17 13:48:08;;;;;;;;;;;22.00;96.50;;;;;;5091549;28;20295;-61
2022/08/17 13:50:45;;;;;;;;;;;21.90;96.20;;;;;;5090881;28;19925;-60
2022/08/17 13:53:15;;;;;;;;;;;21.80;96.10;;;;;;5089830;28;19924;-61
2022/08/17 13:55:52;;;;;;;;;;;21.80;96.40;;;;;;5090184;28;20299;-56
2022/08/17 13:58:22;;;;;;;;;;;21.70;96.20;;;;;;5091321;28;19924;-54
2022/08/17 14:00:50;;;;;;;;;;;21.60;96.10;;;;;;5091306;28;19925;-55
2022/08/17 14:03:18;;;;;;;;;;;21.40;96.60;;;;;;5091057;28;19946;-57
2022/08/17 14:05:46;;;;;;;;;;;21.30;96.20;;;;;;5091229;28;20291;-58
2022/08/17 14:08:15;;;;;;;;;;;21.20;96.50;;;;;;5084092;28;19932;-61
2022/08/17 14:10:44;;;;;;;;;;;21.10;96.80;;;;;;5069989;28;20110;-56
2022/08/17 14:13:14;;;;;;;;;;;21.00;96.90;;;;;;5089422;28;19928;-57
2022/08/17 14:15:41;;;;;;;;;;;20.90;97.10;;;;;;5091009;28;19928;-61
2022/08/17 14:18:23;;;;;;;;;;;20.90;97.20;;;;;;5090938;28;19924;-60
2022/08/17 14:21:11;;;;;;;;;;;20.80;97.20;;;;;;5091098;28;19924;-56
2022/08/17 14:23:38;;;;;;;;;;;20.70;97.40;;;;;;5080213;28;19925;-55
2022/08/17 14:26:09;;;;;;;;;;;20.50;97.30;;;;;;5090925;28;19935;-55
2022/08/17 14:28:37;;;;;;;;;;;20.40;97.30;;;;;;5090507;28;20368;-57
2022/08/17 14:31:21;;;;;;;;;;;20.30;97.70;;;;;;5089664;28;19924;-54
2022/08/17 14:33:48;;;;;;;;;;;20.10;97.90;;;;;;5090402;28;20291;-55
2022/08/17 14:36:16;;;;;;;;;;;20.00;97.90;;;;;;5090543;28;20517;-55
2022/08/17 14:38:43;;;;;;;;;;;20.00;98.10;;;;;;5087347;28;19924;-54
2022/08/17 14:41:11;;;;;;;;;;;19.90;98.30;;;;;;5089142;28;19924;-56
2022/08/17 14:43:38;;;;;;;;;;;19.90;98.60;;;;;;5090307;28;19924;-54
2022/08/17 14:46:06;;;;;;;;;;;19.80;98.70;;;;;;5089351;28;19924;-54
2022/08/17 14:48:37;;;;;;;;;;;19.70;98.80;;;;;;5089497;28;19924;-54
2022/08/17 14:51:04;;;;;;;;;;;19.70;98.90;;;;;;5090288;28;19924;-61
2022/08/17 14:53:32;;;;;;;;;;;19.70;98.80;;;;;;5081674;28;19928;-54
2022/08/17 14:56:00;;;;;;;;;;;19.60;98.90;;;;;;5090401;28;19931;-54
2022/08/17 14:58:28;;;;;;;;;;;19.70;98.80;;;;;;5090305;28;19924;-54
2022/08/17 15:00:56;;;;;;;;;;;19.60;98.60;;;;;;5089963;28;19924;-54
2022/08/17 15:03:23;;;;;;;;;;;19.50;98.70;;;;;;5088563;28;19924;-55
2022/08/17 15:05:51;;;;;;;;;;;19.50;98.90;;;;;;5089979;28;20422;-57
2022/08/17 15:08:18;;;;;;;;;;;19.50;99.00;;;;;;5088182;28;20315;-58
2022/08/17 15:10:50;;;;;;;;;;;19.50;99.10;;;;;;5090027;28;20403;-57
2022/08/17 15:13:22;;;;;;;;;;;19.50;99.30;;;;;;5089924;28;19924;-55
2022/08/17 15:15:50;;;;;;;;;;;19.50;99.30;;;;;;5090190;28;19924;-54